createdAt,value
2023-01-08T00:00:34.109Z,733.99
2023-01-08T00:03:41.807Z,717.67
2023-01-08T00:06:48.946Z,726.20
2023-01-08T00:09:55.225Z,737.02
2023-01-08T00:13:02.144Z,719.03
2023-01-08T00:16:14.834Z,730.06
2023-01-08T00:19:21.877Z,708.44
2023-01-08T00:22:27.834Z,697.35
2023-01-08T00:25:35.838Z,687.60
2023-01-08T00:28:43.807Z,667.47
2023-01-08T00:31:53.314Z,656.15
2023-01-08T00:34:59.457Z,643.89
2023-01-08T00:38:06.290Z,629.44
2023-01-08T00:41:13.023Z,623.69
2023-01-08T00:44:19.913Z,615.37
2023-01-08T00:47:28.714Z,616.74
2023-01-08T00:50:35.649Z,616.44
2023-01-08T00:53:41.753Z,606.63
2023-01-08T00:56:48.931Z,605.52
2023-01-08T00:59:54.974Z,614.57
2023-01-08T01:03:04.620Z,618.99
2023-01-08T01:06:12.249Z,617.25
2023-01-08T01:09:19.195Z,610.86
2023-01-08T01:12:25.308Z,625.56
2023-01-08T01:15:32.208Z,632.98
2023-01-08T01:18:41.024Z,628.66
2023-01-08T01:21:48.665Z,646.79
2023-01-08T01:24:54.686Z,627.64
2023-01-08T01:28:01.582Z,621.64
2023-01-08T01:31:07.931Z,633.55
2023-01-08T01:34:17.746Z,633.43
2023-01-08T01:37:23.771Z,619.91
2023-01-08T01:40:30.628Z,613.02
2023-01-08T01:43:44.156Z,604.27
2023-01-08T01:46:53.491Z,606.39
2023-01-08T01:50:10.777Z,609.80
2023-01-08T01:53:27.612Z,607.57
2023-01-08T01:56:37.091Z,605.57
2023-01-08T01:59:47.436Z,607.50
2023-01-08T02:02:55.146Z,611.08
2023-01-08T02:06:20.634Z,614.52
2023-01-08T02:09:45.228Z,617.16
2023-01-08T02:13:03.261Z,615.53
2023-01-08T02:16:21.936Z,603.40
2023-01-08T02:19:48.913Z,600.41
2023-01-08T02:23:24.067Z,613.39
2023-01-08T02:26:37.584Z,623.70
2023-01-08T02:29:45.063Z,598.86
2023-01-08T02:32:52.032Z,610.58
2023-01-08T02:36:37.473Z,617.89
2023-01-08T02:40:13.909Z,616.72
2023-01-08T02:43:38.192Z,618.64
2023-01-08T02:46:47.039Z,603.41
2023-01-08T02:50:07.447Z,596.47
2023-01-08T02:53:21.244Z,612.65
2023-01-08T02:56:34.147Z,597.59
2023-01-08T02:59:48.033Z,595.96
2023-01-08T03:03:06.715Z,587.54
2023-01-08T03:06:20.425Z,564.50
2023-01-08T03:09:27.439Z,552.14
2023-01-08T03:12:52.100Z,554.20
2023-01-08T03:16:09.915Z,557.87
2023-01-08T03:19:25.222Z,554.77
2023-01-08T03:22:35.547Z,552.72
2023-01-08T03:25:50.554Z,553.49
2023-01-08T03:29:01.040Z,535.59
2023-01-08T03:32:19.125Z,543.58
2023-01-08T03:35:30.439Z,546.59
2023-01-08T03:38:47.036Z,540.03
2023-01-08T03:41:57.595Z,519.67
2023-01-08T03:45:05.603Z,523.60
2023-01-08T03:48:15.284Z,518.94
2023-01-08T03:51:22.227Z,517.23
2023-01-08T03:54:35.400Z,507.50
2023-01-08T03:57:42.269Z,509.61
2023-01-08T04:00:48.431Z,523.73
2023-01-08T04:03:57.923Z,534.57
2023-01-08T04:07:03.892Z,546.17
2023-01-08T04:10:11.665Z,546.21
2023-01-08T04:13:17.784Z,553.40
2023-01-08T04:16:24.920Z,581.60
2023-01-08T04:19:33.655Z,609.53
2023-01-08T04:22:40.731Z,638.28
2023-01-08T04:25:46.772Z,620.54
2023-01-08T04:28:53.699Z,564.44
2023-01-08T04:31:59.817Z,525.50
2023-01-08T04:35:10.279Z,547.00
2023-01-08T04:38:16.229Z,576.42
2023-01-08T04:41:23.075Z,566.11
2023-01-08T04:44:29.270Z,537.19
2023-01-08T04:47:36.399Z,484.19
2023-01-08T04:50:45.042Z,510.64
2023-01-08T04:53:52.026Z,506.32
2023-01-08T04:56:58.106Z,497.59
2023-01-08T05:00:04.945Z,480.47
2023-01-08T05:03:11.183Z,485.40
2023-01-08T05:06:20.788Z,478.57
2023-01-08T05:09:26.898Z,489.15
2023-01-08T05:12:33.764Z,481.08
2023-01-08T05:15:39.819Z,533.74
2023-01-08T05:18:47.212Z,503.94
2023-01-08T05:21:55.991Z,524.64
2023-01-08T05:25:02.904Z,522.24
2023-01-08T05:28:08.934Z,484.57
2023-01-08T05:31:17.799Z,466.39
2023-01-08T05:34:24.034Z,454.26
2023-01-08T05:37:33.503Z,453.16
2023-01-08T05:40:39.695Z,428.04
2023-01-08T05:43:46.710Z,426.72
2023-01-08T05:46:52.924Z,427.57
2023-01-08T05:49:59.853Z,430.93
2023-01-08T05:53:10.434Z,413.31
2023-01-08T05:56:17.573Z,408.74
2023-01-08T05:59:24.951Z,409.16
2023-01-08T06:02:31.896Z,421.67
2023-01-08T06:05:38.050Z,427.68
2023-01-08T06:08:47.604Z,420.51
2023-01-08T06:11:54.084Z,415.44
2023-01-08T06:15:01.103Z,416.19
2023-01-08T06:18:07.802Z,410.31
2023-01-08T06:21:15.423Z,402.96
2023-01-08T06:24:24.143Z,392.74
2023-01-08T06:27:31.006Z,386.75
2023-01-08T06:30:37.067Z,392.55
2023-01-08T06:33:44.085Z,398.48
2023-01-08T06:36:51.539Z,393.89
2023-01-08T06:40:01.054Z,399.46
2023-01-08T06:43:08.550Z,403.93
2023-01-08T06:46:15.504Z,424.38
2023-01-08T06:49:22.444Z,505.72
2023-01-08T06:52:29.596Z,505.65
2023-01-08T06:55:38.459Z,498.54
2023-01-08T06:58:45.304Z,461.01
2023-01-08T07:01:52.055Z,436.34
2023-01-08T07:04:59.032Z,439.70
2023-01-08T07:08:05.162Z,490.13
2023-01-08T07:11:15.716Z,486.78
2023-01-08T07:14:21.971Z,479.28
2023-01-08T07:17:29.018Z,467.64
2023-01-08T07:20:35.318Z,424.83
2023-01-08T07:23:42.251Z,386.19
2023-01-08T07:26:50.913Z,366.79
2023-01-08T07:29:57.871Z,367.91
2023-01-08T07:33:04.142Z,392.40
2023-01-08T07:36:12.583Z,439.13
2023-01-08T07:39:18.755Z,397.39
2023-01-08T07:42:29.529Z,379.88
2023-01-08T07:45:35.804Z,384.87
2023-01-08T07:48:42.724Z,362.65
2023-01-08T07:51:48.927Z,368.72
2023-01-08T07:54:56.128Z,377.37
2023-01-08T07:58:09.695Z,368.70
2023-01-08T08:01:17.476Z,346.06
2023-01-08T08:04:24.663Z,341.32
2023-01-08T08:07:34.863Z,330.32
2023-01-08T08:10:41.591Z,336.84
2023-01-08T08:13:55.952Z,346.98
2023-01-08T08:17:04.238Z,323.88
2023-01-08T08:20:13.390Z,316.67
2023-01-08T08:23:19.870Z,317.50
2023-01-08T08:26:27.629Z,324.78
2023-01-08T08:29:37.659Z,349.92
2023-01-08T08:32:45.231Z,424.50
2023-01-08T08:35:53.466Z,451.77
2023-01-08T08:39:00.514Z,468.55
2023-01-08T08:42:06.913Z,470.06
2023-01-08T08:45:17.148Z,468.90
2023-01-08T08:48:23.374Z,437.87
2023-01-08T08:51:31.029Z,448.46
2023-01-08T08:54:38.883Z,441.97
2023-01-08T08:57:46.827Z,459.17
2023-01-08T09:00:55.577Z,454.90
2023-01-08T09:04:02.915Z,457.11
2023-01-08T09:07:09.370Z,458.12
2023-01-08T09:10:16.638Z,447.26
2023-01-08T09:13:23.664Z,442.48
2023-01-08T09:16:33.474Z,432.72
2023-01-08T09:19:39.778Z,380.53
2023-01-08T09:22:46.768Z,392.24
2023-01-08T09:25:52.916Z,378.06
2023-01-08T09:29:01.086Z,361.55
2023-01-08T09:32:12.915Z,360.07
2023-01-08T09:35:20.258Z,375.45
2023-01-08T09:38:29.538Z,391.16
2023-01-08T09:41:42.633Z,407.29
2023-01-08T09:44:54.884Z,431.56
2023-01-08T09:48:14.308Z,447.82
2023-01-08T09:51:23.927Z,444.72
2023-01-08T09:54:31.106Z,439.76
2023-01-08T09:57:37.504Z,418.40
2023-01-08T10:00:44.893Z,400.51
2023-01-08T10:04:03.126Z,425.53
2023-01-08T10:07:22.183Z,424.41
2023-01-08T10:10:33.930Z,435.05
2023-01-08T10:13:47.800Z,413.35
2023-01-08T10:17:04.343Z,418.96
2023-01-08T10:20:21.491Z,411.95
2023-01-08T10:23:27.992Z,403.58
2023-01-08T10:26:38.147Z,408.94
2023-01-08T10:29:44.426Z,450.79
2023-01-08T10:32:56.653Z,451.50
2023-01-08T10:36:13.013Z,482.76
2023-01-08T10:39:28.793Z,444.18
2023-01-08T10:42:39.894Z,420.12
2023-01-08T10:46:00.665Z,416.28
2023-01-08T10:49:10.973Z,426.13
2023-01-08T10:52:36.456Z,457.77
2023-01-08T10:55:42.628Z,535.98
2023-01-08T10:58:49.631Z,576.38
2023-01-08T11:02:00.008Z,567.09
2023-01-08T11:05:11.735Z,570.60
2023-01-08T11:08:25.187Z,559.38
2023-01-08T11:11:39.112Z,583.74
2023-01-08T11:14:51.736Z,573.80
2023-01-08T11:18:08.076Z,552.63
2023-01-08T11:21:26.285Z,703.55
2023-01-08T11:24:40.570Z,607.55
2023-01-08T11:27:49.867Z,568.00
2023-01-08T11:31:14.896Z,583.13
2023-01-08T11:34:41.022Z,560.30
2023-01-08T11:37:55.655Z,545.52
2023-01-08T11:41:29.964Z,500.61
2023-01-08T11:44:54.254Z,503.17
2023-01-08T11:48:30.195Z,511.94
2023-01-08T11:51:58.272Z,496.81
2023-01-08T11:55:27.311Z,499.13
2023-01-08T11:58:59.135Z,488.64
2023-01-08T12:02:24.674Z,506.41
2023-01-08T12:05:45.313Z,510.66
2023-01-08T12:09:14.083Z,455.90
2023-01-08T12:12:43.021Z,399.96
2023-01-08T12:16:09.711Z,319.46
2023-01-08T12:19:42.651Z,259.18
2023-01-08T12:23:08.257Z,235.00
2023-01-08T12:26:27.334Z,238.13
2023-01-08T12:30:01.890Z,249.42
2023-01-08T12:33:35.390Z,256.35
2023-01-08T12:36:51.675Z,240.45
2023-01-08T12:40:07.879Z,247.45
2023-01-08T12:43:23.132Z,265.13
2023-01-08T12:46:36.645Z,290.90
2023-01-08T12:49:57.435Z,289.98
2023-01-08T12:53:17.759Z,306.78
2023-01-08T12:56:38.612Z,308.08
2023-01-08T12:59:59.221Z,304.54
2023-01-08T13:03:15.189Z,292.54
2023-01-08T13:06:26.616Z,390.43
2023-01-08T13:09:35.702Z,377.36
2023-01-08T13:12:44.715Z,342.60
2023-01-08T13:15:50.928Z,315.73
2023-01-08T13:19:01.817Z,288.89
2023-01-08T13:22:30.288Z,298.37
2023-01-08T13:25:40.189Z,282.04
2023-01-08T13:28:48.837Z,275.21
2023-01-08T13:31:56.891Z,307.42
2023-01-08T13:35:25.572Z,301.12
2023-01-08T13:38:35.157Z,302.88
2023-01-08T13:41:48.889Z,320.48
2023-01-08T13:45:03.734Z,319.05
2023-01-08T13:48:23.191Z,333.46
2023-01-08T13:51:45.587Z,343.88
2023-01-08T13:54:57.203Z,344.13
2023-01-08T13:58:13.440Z,351.17
2023-01-08T14:01:20.160Z,344.51
2023-01-08T14:04:27.819Z,355.31
2023-01-08T14:07:33.938Z,392.99
2023-01-08T14:10:43.535Z,453.29
2023-01-08T14:13:50.855Z,516.91
2023-01-08T14:16:59.191Z,782.72
2023-01-08T14:20:12.266Z,1004.15
2023-01-08T14:23:29.503Z,736.82
2023-01-08T14:26:41.595Z,854.01
2023-01-08T14:29:49.075Z,760.75
2023-01-08T14:32:57.776Z,737.56
2023-01-08T14:36:09.610Z,866.67
2023-01-08T14:39:16.221Z,669.40
2023-01-08T14:42:50.324Z,549.34
2023-01-08T14:46:00.143Z,666.26
2023-01-08T14:49:07.205Z,600.02
2023-01-08T14:52:18.719Z,592.82
2023-01-08T14:55:27.684Z,639.88
2023-01-08T14:58:42.292Z,716.74
2023-01-08T15:01:58.844Z,556.73
2023-01-08T15:05:21.478Z,563.63
2023-01-08T15:08:37.822Z,561.36
2023-01-08T15:11:58.975Z,555.28
2023-01-08T15:15:27.532Z,529.77
2023-01-08T15:18:34.629Z,529.34
2023-01-08T15:21:48.571Z,513.91
2023-01-08T15:25:03.119Z,634.48
2023-01-08T15:28:17.746Z,1025.88
2023-01-08T15:31:33.621Z,963.90
2023-01-08T15:34:40.662Z,1161.13
2023-01-08T15:37:49.345Z,1167.09
2023-01-08T15:40:58.080Z,824.63
2023-01-08T15:44:01.779Z,1205.28
2023-01-08T15:47:12.136Z,1365.34
2023-01-08T15:50:20.717Z,877.73
2023-01-08T15:53:27.976Z,752.40
2023-01-08T15:56:34.164Z,717.81
2023-01-08T15:59:41.145Z,700.16
2023-01-08T16:02:53.379Z,649.99
2023-01-08T16:06:00.681Z,998.64
2023-01-08T16:09:07.267Z,952.49
2023-01-08T16:12:14.264Z,1021.86
2023-01-08T16:15:21.079Z,1152.47
2023-01-08T16:18:32.157Z,1042.50
2023-01-08T16:21:39.037Z,777.34
2023-01-08T16:24:46.041Z,691.83
2023-01-08T16:27:52.259Z,595.13
2023-01-08T16:30:59.339Z,606.72
2023-01-08T16:34:09.599Z,652.26
2023-01-08T16:37:16.858Z,650.26
2023-01-08T16:40:23.157Z,624.46
2023-01-08T16:43:32.789Z,642.23
2023-01-08T16:46:38.899Z,634.47
2023-01-08T16:49:50.593Z,666.55
2023-01-08T16:52:56.709Z,644.15
2023-01-08T16:56:03.776Z,710.04
2023-01-08T16:59:22.338Z,879.50
2023-01-08T17:02:30.298Z,842.59
2023-01-08T17:05:40.268Z,747.39
2023-01-08T17:08:47.258Z,723.85
2023-01-08T17:11:53.596Z,953.74
2023-01-08T17:15:00.646Z,954.15
2023-01-08T17:18:07.450Z,836.98
2023-01-08T17:21:18.418Z,949.56
2023-01-08T17:24:24.655Z,1421.46
2023-01-08T17:27:31.754Z,1219.84
2023-01-08T17:30:37.980Z,1184.51
2023-01-08T17:33:45.556Z,1105.38
2023-01-08T17:36:54.311Z,1244.15
2023-01-08T17:40:02.507Z,1542.45
2023-01-08T17:43:08.768Z,1132.51
2023-01-08T17:46:15.899Z,1073.77
2023-01-08T17:49:22.177Z,1053.54
2023-01-08T17:52:31.924Z,960.36
2023-01-08T17:55:39.103Z,960.44
2023-01-08T17:58:46.118Z,944.39
2023-01-08T18:01:55.185Z,909.89
2023-01-08T18:05:02.152Z,829.05
2023-01-08T18:08:11.025Z,875.50
2023-01-08T18:11:18.330Z,934.28
2023-01-08T18:14:24.998Z,798.41
2023-01-08T18:17:33.437Z,769.86
2023-01-08T18:20:43.118Z,798.93
2023-01-08T18:23:52.833Z,819.63
2023-01-08T18:26:59.331Z,1009.02
2023-01-08T18:30:07.099Z,916.24
2023-01-08T18:33:13.356Z,810.14
2023-01-08T18:36:20.956Z,741.75
2023-01-08T18:39:31.151Z,745.51
2023-01-08T18:42:38.079Z,743.60
2023-01-08T18:45:44.383Z,746.87
2023-01-08T18:48:51.418Z,685.75
2023-01-08T18:51:57.473Z,629.90
2023-01-08T18:55:07.729Z,686.58
2023-01-08T18:58:14.159Z,623.56
2023-01-08T19:01:21.511Z,641.18
2023-01-08T19:04:28.669Z,678.84
2023-01-08T19:07:36.247Z,757.81
2023-01-08T19:10:45.091Z,769.55
2023-01-08T19:13:52.143Z,755.81
2023-01-08T19:16:58.621Z,738.77
2023-01-08T19:20:07.062Z,698.67
2023-01-08T19:23:14.013Z,759.81
2023-01-08T19:26:23.864Z,895.29
2023-01-08T19:29:30.029Z,834.63
2023-01-08T19:32:38.663Z,807.58
2023-01-08T19:35:47.338Z,746.62
2023-01-08T19:38:54.820Z,878.74
2023-01-08T19:42:16.545Z,874.57
2023-01-08T19:45:23.493Z,826.39
2023-01-08T19:48:30.727Z,902.39
2023-01-08T19:51:38.592Z,942.58
2023-01-08T19:54:46.401Z,912.32
2023-01-08T19:57:57.789Z,766.25
2023-01-08T20:01:05.967Z,789.71
2023-01-08T20:04:14.344Z,832.88
2023-01-08T20:07:21.785Z,905.98
2023-01-08T20:10:29.250Z,921.36
2023-01-08T20:13:39.125Z,826.55
2023-01-08T20:16:47.935Z,813.96
2023-01-08T20:19:54.995Z,829.41
2023-01-08T20:23:03.574Z,827.69
2023-01-08T20:26:16.637Z,840.10
2023-01-08T20:29:27.605Z,825.14
2023-01-08T20:32:34.604Z,826.06
2023-01-08T20:35:42.400Z,831.14
2023-01-08T20:38:50.200Z,825.17
2023-01-08T20:42:04.301Z,885.75
2023-01-08T20:45:15.808Z,812.83
2023-01-08T20:48:25.328Z,740.16
2023-01-08T20:51:32.996Z,681.07
2023-01-08T20:54:40.352Z,666.14
2023-01-08T20:57:46.581Z,649.32
2023-01-08T21:00:56.379Z,634.73
2023-01-08T21:04:04.061Z,639.48
2023-01-08T21:07:12.244Z,671.26
2023-01-08T21:10:19.955Z,650.38
2023-01-08T21:13:29.987Z,621.61
2023-01-08T21:16:41.718Z,657.73
2023-01-08T21:19:49.025Z,727.74
2023-01-08T21:22:56.463Z,787.15
2023-01-08T21:26:07.529Z,804.67
2023-01-08T21:29:15.024Z,814.92
2023-01-08T21:32:24.534Z,829.86
2023-01-08T21:35:30.720Z,827.18
2023-01-08T21:38:37.996Z,860.89
2023-01-08T21:41:56.403Z,855.80
2023-01-08T21:45:15.708Z,803.33
2023-01-08T21:48:24.527Z,770.86
2023-01-08T21:51:43.823Z,747.50
2023-01-08T21:54:50.436Z,751.62
2023-01-08T21:57:57.363Z,752.40
2023-01-08T22:01:03.635Z,765.38
2023-01-08T22:04:13.605Z,758.98
2023-01-08T22:07:20.245Z,804.91
2023-01-08T22:10:27.256Z,825.34
2023-01-08T22:13:34.584Z,842.97
2023-01-08T22:16:41.709Z,797.88
2023-01-08T22:19:50.395Z,784.54
2023-01-08T22:22:57.338Z,763.73
2023-01-08T22:26:07.692Z,773.23
2023-01-08T22:29:14.615Z,777.45
2023-01-08T22:32:20.827Z,885.59
2023-01-08T22:35:30.375Z,890.64
2023-01-08T22:38:37.755Z,889.13
2023-01-08T22:41:44.783Z,832.65
2023-01-08T22:44:52.866Z,811.05
2023-01-08T22:48:00.353Z,814.53
2023-01-08T22:51:09.599Z,786.21
2023-01-08T22:54:18.313Z,777.60
2023-01-08T22:57:24.398Z,756.93
2023-01-08T23:00:31.306Z,733.07
2023-01-08T23:03:37.332Z,719.55
2023-01-08T23:06:46.845Z,684.78
2023-01-08T23:09:53.092Z,659.96
2023-01-08T23:13:00.236Z,666.16
2023-01-08T23:16:07.327Z,693.39
2023-01-08T23:19:14.720Z,726.65
2023-01-08T23:22:23.495Z,669.02
2023-01-08T23:25:32.253Z,629.64
2023-01-08T23:28:39.019Z,624.74
2023-01-08T23:31:45.937Z,615.79
2023-01-08T23:34:52.441Z,645.07
2023-01-08T23:38:01.918Z,676.15
2023-01-08T23:41:10.418Z,720.19
2023-01-08T23:44:18.984Z,778.00
2023-01-08T23:47:25.269Z,775.07
2023-01-08T23:50:32.201Z,759.03
2023-01-08T23:53:40.920Z,772.70
2023-01-08T23:56:48.014Z,797.03
2023-01-08T23:59:54.162Z,817.89
